sensor_id;sensor_type;location;lat;lon;timestamp;P1;durP1;ratioP1;P2;durP2;ratioP2
34102;SDS011;20381;54.498;18.206;2023-02-02T06:12:56;1.02;;;0.40;;
34102;SDS011;20381;54.498;18.206;2023-02-02T06:25:26;2.15;;;0.60;;
34102;SDS011;20381;54.498;18.206;2023-02-02T06:31:10;1.42;;;0.90;;
34102;SDS011;20381;54.498;18.206;2023-02-02T06:33:41;1.37;;;0.80;;
34102;SDS011;20381;54.498;18.206;2023-02-02T06:38:46;1.15;;;1.00;;
34102;SDS011;20381;54.498;18.206;2023-02-02T06:41:16;2.35;;;0.90;;
34102;SDS011;20381;54.498;18.206;2023-02-02T06:43:54;1.02;;;0.80;;
34102;SDS011;20381;54.498;18.206;2023-02-02T06:46:20;1.00;;;0.78;;
34102;SDS011;20381;54.498;18.206;2023-02-02T06:48:47;1.27;;;0.78;;
34102;SDS011;20381;54.498;18.206;2023-02-02T06:51:14;1.80;;;0.83;;
34102;SDS011;20381;54.498;18.206;2023-02-02T06:53:40;1.27;;;0.90;;
34102;SDS011;20381;54.498;18.206;2023-02-02T06:56:09;1.10;;;0.70;;
34102;SDS011;20381;54.498;18.206;2023-02-02T06:58:37;1.45;;;1.00;;
34102;SDS011;20381;54.498;18.206;2023-02-02T07:03:54;1.30;;;1.20;;
34102;SDS011;20381;54.498;18.206;2023-02-02T07:06:25;3.17;;;1.80;;
34102;SDS011;20381;54.498;18.206;2023-02-02T07:08:54;2.47;;;1.60;;
34102;SDS011;20381;54.498;18.206;2023-02-02T07:11:21;4.03;;;1.77;;
34102;SDS011;20381;54.498;18.206;2023-02-02T07:14:07;2.75;;;1.67;;
34102;SDS011;20381;54.498;18.206;2023-02-02T07:16:38;2.80;;;1.55;;
34102;SDS011;20381;54.498;18.206;2023-02-02T07:19:13;2.10;;;1.75;;
34102;SDS011;20381;54.498;18.206;2023-02-02T07:21:40;5.40;;;1.57;;
34102;SDS011;20381;54.498;18.206;2023-02-02T07:24:08;2.33;;;1.25;;
34102;SDS011;20381;54.498;18.206;2023-02-02T07:26:35;4.58;;;1.67;;
34102;SDS011;20381;54.498;18.206;2023-02-02T07:29:02;3.42;;;1.42;;
34102;SDS011;20381;54.498;18.206;2023-02-02T07:31:28;3.65;;;1.57;;
34102;SDS011;20381;54.498;18.206;2023-02-02T07:33:55;2.53;;;1.40;;
34102;SDS011;20381;54.498;18.206;2023-02-02T07:36:22;2.98;;;1.60;;
34102;SDS011;20381;54.498;18.206;2023-02-02T07:38:50;4.55;;;1.77;;
34102;SDS011;20381;54.498;18.206;2023-02-02T07:41:26;4.40;;;1.92;;
34102;SDS011;20381;54.498;18.206;2023-02-02T07:43:52;4.27;;;1.73;;
34102;SDS011;20381;54.498;18.206;2023-02-02T07:46:26;2.77;;;1.70;;
34102;SDS011;20381;54.498;18.206;2023-02-02T07:48:53;2.33;;;1.45;;
34102;SDS011;20381;54.498;18.206;2023-02-02T07:51:26;2.58;;;1.70;;
34102;SDS011;20381;54.498;18.206;2023-02-02T07:53:53;4.10;;;1.87;;
34102;SDS011;20381;54.498;18.206;2023-02-02T07:56:22;3.12;;;1.50;;
34102;SDS011;20381;54.498;18.206;2023-02-02T07:58:56;3.02;;;1.70;;
34102;SDS011;20381;54.498;18.206;2023-02-02T08:01:26;3.20;;;1.72;;
34102;SDS011;20381;54.498;18.206;2023-02-02T08:03:58;3.40;;;1.50;;
34102;SDS011;20381;54.498;18.206;2023-02-02T08:09:44;4.85;;;1.52;;
34102;SDS011;20381;54.498;18.206;2023-02-02T08:12:15;3.80;;;1.50;;
34102;SDS011;20381;54.498;18.206;2023-02-02T08:14:53;3.37;;;1.40;;
34102;SDS011;20381;54.498;18.206;2023-02-02T08:17:47;2.30;;;1.25;;
34102;SDS011;20381;54.498;18.206;2023-02-02T08:20:19;1.92;;;0.95;;
34102;SDS011;20381;54.498;18.206;2023-02-02T08:22:58;2.42;;;1.10;;
34102;SDS011;20381;54.498;18.206;2023-02-02T08:25:33;2.12;;;0.80;;
34102;SDS011;20381;54.498;18.206;2023-02-02T08:28:08;0.95;;;0.80;;
34102;SDS011;20381;54.498;18.206;2023-02-02T08:37:37;2.30;;;0.70;;
34102;SDS011;20381;54.498;18.206;2023-02-02T08:40:00;2.22;;;0.80;;
34102;SDS011;20381;54.498;18.206;2023-02-02T08:42:27;2.05;;;1.20;;
34102;SDS011;20381;54.498;18.206;2023-02-02T08:45:09;2.92;;;1.30;;
34102;SDS011;20381;54.498;18.206;2023-02-02T08:47:34;1.17;;;0.70;;
34102;SDS011;20381;54.498;18.206;2023-02-02T08:50:04;2.87;;;1.00;;
34102;SDS011;20381;54.498;18.206;2023-02-02T08:52:35;5.12;;;1.02;;
34102;SDS011;20381;54.498;18.206;2023-02-02T08:55:03;2.37;;;1.10;;
34102;SDS011;20381;54.498;18.206;2023-02-02T08:57:33;4.50;;;1.85;;
34102;SDS011;20381;54.498;18.206;2023-02-02T09:00:07;1.67;;;0.93;;
34102;SDS011;20381;54.498;18.206;2023-02-02T09:02:40;3.87;;;1.05;;
34102;SDS011;20381;54.498;18.206;2023-02-02T09:05:12;2.20;;;1.00;;
34102;SDS011;20381;54.498;18.206;2023-02-02T09:07:47;1.87;;;0.78;;
34102;SDS011;20381;54.498;18.206;2023-02-02T09:10:17;2.02;;;0.95;;
34102;SDS011;20381;54.498;18.206;2023-02-02T09:12:44;1.32;;;0.62;;
34102;SDS011;20381;54.498;18.206;2023-02-02T09:15:18;5.28;;;1.40;;
34102;SDS011;20381;54.498;18.206;2023-02-02T09:17:47;1.67;;;0.95;;
34102;SDS011;20381;54.498;18.206;2023-02-02T09:20:17;4.72;;;1.30;;
34102;SDS011;20381;54.498;18.206;2023-02-02T09:22:54;2.55;;;1.00;;
34102;SDS011;20381;54.498;18.206;2023-02-02T09:25:21;3.47;;;1.00;;
34102;SDS011;20381;54.498;18.206;2023-02-02T09:27:50;2.27;;;1.00;;
34102;SDS011;20381;54.498;18.206;2023-02-02T09:30:17;2.42;;;1.45;;
34102;SDS011;20381;54.498;18.206;2023-02-02T09:32:44;2.95;;;1.40;;
34102;SDS011;20381;54.498;18.206;2023-02-02T09:35:15;1.70;;;1.10;;
34102;SDS011;20381;54.498;18.206;2023-02-02T09:37:42;2.58;;;1.70;;
34102;SDS011;20381;54.498;18.206;2023-02-02T09:40:13;3.67;;;1.55;;
34102;SDS011;20381;54.498;18.206;2023-02-02T09:45:38;2.75;;;1.12;;
34102;SDS011;20381;54.498;18.206;2023-02-02T09:51:11;3.72;;;1.62;;
34102;SDS011;20381;54.498;18.206;2023-02-02T09:53:51;2.67;;;1.30;;
34102;SDS011;20381;54.498;18.206;2023-02-02T09:56:39;3.37;;;1.50;;
34102;SDS011;20381;54.498;18.206;2023-02-02T09:59:35;5.17;;;1.92;;
34102;SDS011;20381;54.498;18.206;2023-02-02T10:01:55;2.40;;;1.50;;
34102;SDS011;20381;54.498;18.206;2023-02-02T10:04:35;1.42;;;0.90;;
34102;SDS011;20381;54.498;18.206;2023-02-02T10:07:22;1.60;;;0.90;;
34102;SDS011;20381;54.498;18.206;2023-02-02T10:13:02;1.92;;;1.07;;
34102;SDS011;20381;54.498;18.206;2023-02-02T10:18:16;4.90;;;2.00;;
34102;SDS011;20381;54.498;18.206;2023-02-02T10:21:10;8.05;;;3.90;;
34102;SDS011;20381;54.498;18.206;2023-02-02T10:24:25;4.10;;;2.27;;
34102;SDS011;20381;54.498;18.206;2023-02-02T10:26:59;10.30;;;4.80;;
34102;SDS011;20381;54.498;18.206;2023-02-02T10:30:00;6.00;;;3.10;;
34102;SDS011;20381;54.498;18.206;2023-02-02T10:33:00;5.17;;;2.08;;
34102;SDS011;20381;54.498;18.206;2023-02-02T10:38:33;3.50;;;1.85;;
34102;SDS011;20381;54.498;18.206;2023-02-02T10:44:07;1.90;;;1.02;;
34102;SDS011;20381;54.498;18.206;2023-02-02T10:46:59;2.72;;;1.10;;
34102;SDS011;20381;54.498;18.206;2023-02-02T10:49:33;4.40;;;0.82;;
34102;SDS011;20381;54.498;18.206;2023-02-02T10:52:13;2.70;;;0.80;;
34102;SDS011;20381;54.498;18.206;2023-02-02T11:00:23;0.72;;;0.57;;
34102;SDS011;20381;54.498;18.206;2023-02-02T11:03:00;3.02;;;0.80;;
34102;SDS011;20381;54.498;18.206;2023-02-02T11:05:33;1.27;;;0.65;;
34102;SDS011;20381;54.498;18.206;2023-02-02T11:08:19;1.65;;;0.50;;
34102;SDS011;20381;54.498;18.206;2023-02-02T11:13:49;3.55;;;0.90;;
34102;SDS011;20381;54.498;18.206;2023-02-02T11:16:21;2.92;;;0.60;;
34102;SDS011;20381;54.498;18.206;2023-02-02T11:18:53;1.12;;;0.60;;
34102;SDS011;20381;54.498;18.206;2023-02-02T11:21:24;2.73;;;0.50;;
34102;SDS011;20381;54.498;18.206;2023-02-02T11:24:01;1.67;;;0.70;;
34102;SDS011;20381;54.498;18.206;2023-02-02T11:26:42;1.12;;;0.50;;
34102;SDS011;20381;54.498;18.206;2023-02-02T11:29:25;0.70;;;0.50;;
34102;SDS011;20381;54.498;18.206;2023-02-02T11:37:37;1.67;;;0.88;;
34102;SDS011;20381;54.498;18.206;2023-02-02T11:44:51;1.25;;;0.50;;
34102;SDS011;20381;54.498;18.206;2023-02-02T11:47:24;1.12;;;0.40;;
34102;SDS011;20381;54.498;18.206;2023-02-02T11:49:57;1.37;;;0.50;;
34102;SDS011;20381;54.498;18.206;2023-02-02T11:52:30;0.98;;;0.37;;
34102;SDS011;20381;54.498;18.206;2023-02-02T11:55:01;1.77;;;0.72;;
34102;SDS011;20381;54.498;18.206;2023-02-02T11:57:33;1.40;;;0.50;;
34102;SDS011;20381;54.498;18.206;2023-02-02T12:00:05;0.42;;;0.35;;
34102;SDS011;20381;54.498;18.206;2023-02-02T12:03:19;0.93;;;0.40;;
34102;SDS011;20381;54.498;18.206;2023-02-02T12:05:37;1.75;;;0.60;;
34102;SDS011;20381;54.498;18.206;2023-02-02T12:08:07;1.45;;;0.55;;
34102;SDS011;20381;54.498;18.206;2023-02-02T12:10:59;1.70;;;0.50;;
34102;SDS011;20381;54.498;18.206;2023-02-02T12:16:51;2.08;;;1.12;;
34102;SDS011;20381;54.498;18.206;2023-02-02T12:20:08;1.02;;;0.62;;
34102;SDS011;20381;54.498;18.206;2023-02-02T12:22:55;2.20;;;0.95;;
34102;SDS011;20381;54.498;18.206;2023-02-02T12:28:43;3.33;;;1.70;;
